createdAt,value
2019-03-06T00:01:00.200Z,68.39
2019-03-06T00:03:30.806Z,67.59
2019-03-06T00:06:02.168Z,68.12
2019-03-06T00:08:32.455Z,68.14
2019-03-06T00:11:02.721Z,68.44
2019-03-06T00:13:33.363Z,68.55
2019-03-06T00:16:04.666Z,69.17
2019-03-06T00:18:34.868Z,68.99
2019-03-06T00:21:06.094Z,69.19
2019-03-06T00:23:36.364Z,68.84
2019-03-06T00:26:06.568Z,68.91
2019-03-06T00:28:36.810Z,69.27
2019-03-06T00:31:07.024Z,69.19
2019-03-06T00:33:38.325Z,69.24
2019-03-06T00:36:11.481Z,69.58
2019-03-06T00:38:41.686Z,69.32
2019-03-06T00:41:13.506Z,68.97
2019-03-06T00:43:43.680Z,69.70
2019-03-06T00:46:14.015Z,69.68
2019-03-06T00:48:44.238Z,69.00
2019-03-06T00:51:14.803Z,68.97
2019-03-06T00:53:45.134Z,69.50
2019-03-06T00:56:15.436Z,69.04
2019-03-06T00:58:45.698Z,69.31
2019-03-06T01:01:16.569Z,68.95
2019-03-06T01:03:46.977Z,68.62
2019-03-06T01:06:17.241Z,69.30
2019-03-06T01:08:47.745Z,69.29
2019-03-06T01:11:17.948Z,68.93
2019-03-06T01:13:48.202Z,69.10
2019-03-06T01:16:18.346Z,68.66
2019-03-06T01:18:48.571Z,69.01
2019-03-06T01:21:18.843Z,69.02
2019-03-06T01:23:49.289Z,69.06
2019-03-06T01:26:19.513Z,68.92
2019-03-06T01:28:49.824Z,68.98
2019-03-06T01:31:20.024Z,68.54
2019-03-06T01:33:51.910Z,68.52
2019-03-06T01:36:23.818Z,68.53
2019-03-06T01:39:01.335Z,68.21
2019-03-06T01:41:51.167Z,67.85
2019-03-06T01:44:23.007Z,67.99
2019-03-06T01:46:53.269Z,68.61
2019-03-06T01:49:23.854Z,67.83
2019-03-06T01:51:54.173Z,68.93
2019-03-06T01:54:24.928Z,67.94
2019-03-06T01:56:55.217Z,67.77
2019-03-06T01:59:25.357Z,67.93
2019-03-06T02:01:56.840Z,67.66
2019-03-06T02:04:27.221Z,68.02
2019-03-06T02:06:57.416Z,68.06
2019-03-06T02:09:27.730Z,68.18
2019-03-06T02:11:58.396Z,68.45
2019-03-06T02:14:28.726Z,68.60
2019-03-06T02:16:58.999Z,68.33
2019-03-06T02:19:29.257Z,68.21
2019-03-06T02:21:59.394Z,67.58
2019-03-06T02:24:29.585Z,67.79
2019-03-06T02:26:59.736Z,68.15
2019-03-06T02:29:29.865Z,68.23
2019-03-06T02:32:00.070Z,68.05
2019-03-06T02:34:30.546Z,67.92
2019-03-06T02:37:00.704Z,67.35
2019-03-06T02:39:30.992Z,68.10
2019-03-06T02:42:01.157Z,67.74
2019-03-06T02:44:31.375Z,67.35
2019-03-06T02:47:02.069Z,66.60
2019-03-06T02:49:32.337Z,66.22
2019-03-06T02:52:03.004Z,66.39
2019-03-06T02:54:33.374Z,66.11
2019-03-06T02:57:03.582Z,66.95
2019-03-06T02:59:35.532Z,66.01
2019-03-06T03:02:22.687Z,66.17
2019-03-06T03:04:54.621Z,66.50
2019-03-06T03:07:25.230Z,66.06
2019-03-06T03:09:55.380Z,66.54
2019-03-06T03:12:25.537Z,66.37
2019-03-06T03:14:55.720Z,66.54
2019-03-06T03:17:25.961Z,67.02
2019-03-06T03:19:56.166Z,66.30
2019-03-06T03:22:26.462Z,66.69
2019-03-06T03:24:56.612Z,66.35
2019-03-06T03:27:26.927Z,66.72
2019-03-06T03:29:57.069Z,67.02
2019-03-06T03:32:27.272Z,66.66
2019-03-06T03:34:57.535Z,66.65
2019-03-06T03:37:27.695Z,67.01
2019-03-06T03:39:58.012Z,66.00
2019-03-06T03:42:28.591Z,66.46
2019-03-06T03:44:58.782Z,66.66
2019-03-06T03:47:29.069Z,66.32
2019-03-06T03:49:59.222Z,65.68
2019-03-06T03:52:30.030Z,65.59
2019-03-06T03:55:00.749Z,66.11
2019-03-06T03:57:30.925Z,65.19
2019-03-06T04:00:01.253Z,65.49
2019-03-06T04:02:33.182Z,65.97
2019-03-06T04:05:04.151Z,66.06
2019-03-06T04:07:34.386Z,65.33
2019-03-06T04:10:06.254Z,65.55
2019-03-06T04:12:36.526Z,66.18
2019-03-06T04:15:18.848Z,65.38
2019-03-06T04:17:50.273Z,65.91
2019-03-06T04:20:23.260Z,66.20
2019-03-06T04:22:53.542Z,66.18
2019-03-06T04:25:23.857Z,65.64
2019-03-06T04:27:54.399Z,65.18
2019-03-06T04:30:24.669Z,65.34
2019-03-06T04:32:54.907Z,65.54
2019-03-06T04:35:36.242Z,65.92
2019-03-06T04:38:15.882Z,65.10
2019-03-06T04:40:58.253Z,64.98
2019-03-06T04:43:34.653Z,65.21
2019-03-06T04:46:04.978Z,65.13
2019-03-06T04:48:35.190Z,64.58
2019-03-06T04:51:06.540Z,64.23
2019-03-06T04:53:38.017Z,64.79
2019-03-06T04:56:09.403Z,65.03
2019-03-06T04:58:39.744Z,65.28
2019-03-06T05:01:10.183Z,64.53
2019-03-06T05:03:46.661Z,64.26
2019-03-06T05:06:21.535Z,64.41
2019-03-06T05:09:00.007Z,64.54
2019-03-06T05:11:40.747Z,64.56
2019-03-06T05:14:14.126Z,64.24
2019-03-06T05:16:50.891Z,65.11
2019-03-06T05:19:21.628Z,64.01
2019-03-06T05:21:54.947Z,63.59
2019-03-06T05:24:25.682Z,63.86
2019-03-06T05:26:57.198Z,63.51
2019-03-06T05:29:33.372Z,63.92
2019-03-06T05:32:24.290Z,63.66
2019-03-06T05:34:55.220Z,63.99
2019-03-06T05:37:37.949Z,64.36
2019-03-06T05:40:08.488Z,64.52
2019-03-06T05:42:39.015Z,63.78
2019-03-06T05:45:15.783Z,63.82
2019-03-06T05:47:46.039Z,63.70
2019-03-06T05:50:16.667Z,63.35
2019-03-06T05:52:47.463Z,63.01
2019-03-06T05:55:18.848Z,63.05
2019-03-06T05:57:52.512Z,62.16
2019-03-06T06:00:28.491Z,61.90
2019-03-06T06:03:04.331Z,61.05
2019-03-06T06:05:35.045Z,61.27
2019-03-06T06:08:07.701Z,61.36
2019-03-06T06:10:38.677Z,60.43
2019-03-06T06:13:12.019Z,60.34
2019-03-06T06:15:42.873Z,60.32
2019-03-06T06:18:15.012Z,59.37
2019-03-06T06:20:53.235Z,59.22
2019-03-06T06:23:40.626Z,59.16
2019-03-06T06:26:13.182Z,58.02
2019-03-06T06:28:43.857Z,57.33
2019-03-06T06:31:14.922Z,57.07
2019-03-06T06:33:45.360Z,56.83
2019-03-06T06:36:17.675Z,56.68
2019-03-06T06:38:49.380Z,56.94
2019-03-06T06:41:20.037Z,56.37
2019-03-06T06:43:50.526Z,55.80
2019-03-06T06:46:25.354Z,55.97
2019-03-06T06:48:56.015Z,55.57
2019-03-06T06:51:40.438Z,56.26
2019-03-06T06:54:16.758Z,55.49
2019-03-06T06:57:12.902Z,55.32
2019-03-06T07:00:07.220Z,55.45
2019-03-06T07:02:52.350Z,55.12
2019-03-06T07:05:30.451Z,55.24
2019-03-06T07:08:08.690Z,55.61
2019-03-06T07:10:42.485Z,54.97
2019-03-06T07:13:37.442Z,54.75
2019-03-06T07:16:34.576Z,54.73
2019-03-06T07:19:10.118Z,54.13
2019-03-06T07:21:45.064Z,53.90
2019-03-06T07:24:35.047Z,54.56
2019-03-06T07:27:23.557Z,54.35
2019-03-06T07:30:10.284Z,53.98
2019-03-06T07:32:45.136Z,53.42
2019-03-06T07:35:50.892Z,53.22
2019-03-06T07:38:24.532Z,53.36
2019-03-06T07:41:05.977Z,53.15
2019-03-06T07:43:53.421Z,53.11
2019-03-06T07:46:26.723Z,52.57
2019-03-06T07:49:02.244Z,53.31
2019-03-06T07:51:34.346Z,53.04
2019-03-06T07:54:23.720Z,53.02
2019-03-06T07:56:59.382Z,53.24
2019-03-06T07:59:29.975Z,52.95
2019-03-06T08:02:02.957Z,52.99
2019-03-06T08:04:33.424Z,52.47
2019-03-06T08:07:08.803Z,51.41
2019-03-06T08:09:43.556Z,51.51
2019-03-06T08:12:19.220Z,51.56
2019-03-06T08:15:08.153Z,51.54
2019-03-06T08:17:46.515Z,51.86
2019-03-06T08:20:18.751Z,51.22
2019-03-06T08:23:09.455Z,51.32
2019-03-06T08:25:45.867Z,51.11
2019-03-06T08:28:16.387Z,51.15
2019-03-06T08:30:52.529Z,51.63
2019-03-06T08:33:23.696Z,51.22
2019-03-06T08:35:54.292Z,51.29
2019-03-06T08:38:24.732Z,50.61
2019-03-06T08:41:03.814Z,49.97
2019-03-06T08:43:27.343Z,49.57
2019-03-06T08:46:05.723Z,50.02
2019-03-06T08:48:37.779Z,49.95
2019-03-06T08:51:20.513Z,49.86
2019-03-06T08:54:09.312Z,49.77
2019-03-06T08:56:41.512Z,50.18
2019-03-06T08:59:31.676Z,50.22
2019-03-06T09:02:22.378Z,50.20
2019-03-06T09:04:56.111Z,50.19
2019-03-06T09:07:31.287Z,49.47
2019-03-06T09:10:19.840Z,49.43
2019-03-06T09:12:52.928Z,48.61
2019-03-06T09:15:27.660Z,48.73
2019-03-06T09:18:08.999Z,49.15
2019-03-06T09:20:40.673Z,49.05
2019-03-06T09:23:22.877Z,49.21
2019-03-06T09:25:55.456Z,48.99
2019-03-06T09:28:43.825Z,48.81
2019-03-06T09:31:24.304Z,48.27
2019-03-06T09:34:12.958Z,47.43
2019-03-06T09:37:03.472Z,47.01
2019-03-06T09:39:38.216Z,46.59
2019-03-06T09:42:19.267Z,46.66
2019-03-06T09:44:54.166Z,45.95
2019-03-06T09:47:35.105Z,45.20
2019-03-06T09:50:25.706Z,45.24
2019-03-06T09:52:57.802Z,46.17
2019-03-06T09:55:29.892Z,45.36
2019-03-06T09:58:04.600Z,45.54
2019-03-06T10:00:48.592Z,44.77
2019-03-06T10:03:36.698Z,45.26
2019-03-06T10:06:11.499Z,44.33
2019-03-06T10:08:52.502Z,42.94
2019-03-06T10:11:24.617Z,43.01
2019-03-06T10:14:02.526Z,43.44
2019-03-06T10:16:34.580Z,44.17
2019-03-06T10:19:06.553Z,43.89
2019-03-06T10:21:37.167Z,43.59
2019-03-06T10:24:07.354Z,43.69
2019-03-06T10:26:37.781Z,43.71
2019-03-06T10:29:08.080Z,42.91
2019-03-06T10:31:39.518Z,44.51
2019-03-06T10:34:09.775Z,43.40
2019-03-06T10:36:39.969Z,42.95
2019-03-06T10:39:10.928Z,42.35
2019-03-06T10:41:42.368Z,41.49
2019-03-06T10:44:13.063Z,40.01
2019-03-06T10:46:43.490Z,39.39
2019-03-06T10:49:13.745Z,39.49
2019-03-06T10:51:44.304Z,39.58
2019-03-06T10:54:15.686Z,38.74
2019-03-06T10:56:45.942Z,38.36
2019-03-06T10:59:16.242Z,37.36
2019-03-06T11:01:46.857Z,38.10
2019-03-06T11:04:18.952Z,38.23
2019-03-06T11:06:49.321Z,38.99
2019-03-06T11:09:19.583Z,37.80
2019-03-06T11:11:50.013Z,37.90
2019-03-06T11:14:24.369Z,37.70
2019-03-06T11:16:55.957Z,38.26
2019-03-06T11:19:28.685Z,37.02
2019-03-06T11:22:00.603Z,36.68
2019-03-06T11:24:30.937Z,36.10
2019-03-06T11:27:04.488Z,36.96
2019-03-06T11:29:34.887Z,37.42
2019-03-06T11:32:05.224Z,37.06
2019-03-06T11:34:36.646Z,36.25
2019-03-06T11:37:07.386Z,36.21
2019-03-06T11:39:37.613Z,36.56
2019-03-06T11:42:07.971Z,36.82
2019-03-06T11:44:38.364Z,37.34
2019-03-06T11:47:09.206Z,36.94
2019-03-06T11:49:39.936Z,37.33
2019-03-06T11:52:11.975Z,37.26
2019-03-06T11:54:42.404Z,37.38
2019-03-06T11:57:12.718Z,37.69
2019-03-06T11:59:43.699Z,37.60
2019-03-06T12:02:14.265Z,37.12
2019-03-06T12:04:45.003Z,36.95
2019-03-06T12:07:15.454Z,36.79
2019-03-06T12:09:45.771Z,37.06
2019-03-06T12:12:16.142Z,37.72
2019-03-06T12:14:46.432Z,37.30
2019-03-06T12:17:16.773Z,37.35
2019-03-06T12:19:47.246Z,37.54
2019-03-06T12:22:17.680Z,37.75
2019-03-06T12:24:47.923Z,37.55
2019-03-06T12:27:18.255Z,38.06
2019-03-06T12:29:48.841Z,38.27
2019-03-06T12:32:19.317Z,37.89
2019-03-06T12:34:49.710Z,37.74
2019-03-06T12:37:20.102Z,37.81
2019-03-06T12:39:50.492Z,38.26
2019-03-06T12:42:20.918Z,38.27
2019-03-06T12:44:51.347Z,38.04
2019-03-06T12:47:21.665Z,37.81
2019-03-06T12:49:51.959Z,38.24
2019-03-06T12:52:22.613Z,38.33
2019-03-06T12:54:53.094Z,38.32
2019-03-06T12:57:23.490Z,38.30
2019-03-06T12:59:53.993Z,38.54
2019-03-06T13:02:24.679Z,38.58
2019-03-06T13:04:55.032Z,38.61
2019-03-06T13:07:25.351Z,38.54
2019-03-06T13:09:55.668Z,38.31
2019-03-06T13:12:26.009Z,38.54
2019-03-06T13:14:56.297Z,38.26
2019-03-06T13:17:26.645Z,38.71
2019-03-06T13:19:57.192Z,39.47
2019-03-06T13:22:27.820Z,39.56
2019-03-06T13:24:58.174Z,39.57
2019-03-06T13:27:28.453Z,39.51
2019-03-06T13:29:58.800Z,39.49
2019-03-06T13:32:30.781Z,39.66
2019-03-06T13:35:01.575Z,39.46
2019-03-06T13:37:31.904Z,39.91
2019-03-06T13:40:03.383Z,40.34
2019-03-06T13:42:35.050Z,40.29
2019-03-06T13:45:05.789Z,40.34
2019-03-06T13:47:36.114Z,40.63
2019-03-06T13:50:07.871Z,41.19
2019-03-06T13:52:38.302Z,41.38
2019-03-06T13:55:13.059Z,41.41
2019-03-06T13:57:51.053Z,40.95
2019-03-06T14:00:24.478Z,40.67
2019-03-06T14:02:55.002Z,40.79
2019-03-06T14:05:25.307Z,40.64
2019-03-06T14:07:56.762Z,40.63
2019-03-06T14:10:27.305Z,40.66
2019-03-06T14:12:57.870Z,40.74
2019-03-06T14:15:28.184Z,40.99
2019-03-06T14:17:58.616Z,41.32
2019-03-06T14:20:29.022Z,41.67
2019-03-06T14:22:59.562Z,41.88
2019-03-06T14:25:30.422Z,42.03
2019-03-06T14:28:00.664Z,42.33
2019-03-06T14:30:35.260Z,42.44
2019-03-06T14:33:05.993Z,42.59
2019-03-06T14:35:36.294Z,43.05
2019-03-06T14:38:07.179Z,43.47
2019-03-06T14:40:37.438Z,43.89
2019-03-06T14:43:08.291Z,44.03
2019-03-06T14:45:38.702Z,44.21
2019-03-06T14:48:09.259Z,44.51
2019-03-06T14:50:39.803Z,44.78
2019-03-06T14:53:10.664Z,44.95
2019-03-06T14:55:40.933Z,45.03
2019-03-06T14:58:11.265Z,45.20
2019-03-06T15:01:00.000Z,45.30
2019-03-06T15:03:30.771Z,45.36
2019-03-06T15:06:00.969Z,45.63
2019-03-06T15:08:31.401Z,45.79
2019-03-06T15:11:10.222Z,45.81
2019-03-06T15:13:47.188Z,45.70
2019-03-06T15:16:18.268Z,46.05
2019-03-06T15:18:48.650Z,46.03
2019-03-06T15:21:18.996Z,46.13
2019-03-06T15:23:49.210Z,46.08
2019-03-06T15:26:19.634Z,46.21
2019-03-06T15:28:56.130Z,46.68
2019-03-06T15:31:28.546Z,46.87
2019-03-06T15:34:01.519Z,47.10
2019-03-06T15:36:32.714Z,47.21
2019-03-06T15:39:04.349Z,47.39
2019-03-06T15:41:35.758Z,47.73
2019-03-06T15:44:06.060Z,47.47
2019-03-06T15:46:36.353Z,47.59
2019-03-06T15:49:07.019Z,47.65
2019-03-06T15:51:37.714Z,47.66
2019-03-06T15:54:09.440Z,48.14
2019-03-06T15:56:40.238Z,48.36
2019-03-06T15:59:14.820Z,48.16
2019-03-06T16:01:43.864Z,47.93
2019-03-06T16:04:14.393Z,48.20
2019-03-06T16:06:53.585Z,48.22
2019-03-06T16:09:16.511Z,48.48
2019-03-06T16:11:47.013Z,48.89
2019-03-06T16:14:18.955Z,48.35
2019-03-06T16:16:49.202Z,48.92
2019-03-06T16:19:19.588Z,49.08
2019-03-06T16:21:49.985Z,49.32
2019-03-06T16:24:21.270Z,49.72
2019-03-06T16:26:51.814Z,49.73
2019-03-06T16:29:23.903Z,49.73
2019-03-06T16:31:54.539Z,49.28
2019-03-06T16:34:27.196Z,49.32
2019-03-06T16:36:59.378Z,49.16
2019-03-06T16:39:29.815Z,49.14
2019-03-06T16:42:00.264Z,48.96
2019-03-06T16:44:30.470Z,48.80
2019-03-06T16:47:06.595Z,49.39
2019-03-06T16:49:32.797Z,49.37
2019-03-06T16:52:03.180Z,49.34
2019-03-06T16:54:33.778Z,49.19
2019-03-06T16:57:04.351Z,49.28
2019-03-06T16:59:39.401Z,49.40
2019-03-06T17:02:16.553Z,49.28
2019-03-06T17:04:47.219Z,49.25
2019-03-06T17:07:32.488Z,49.40
2019-03-06T17:10:01.022Z,49.59
2019-03-06T17:12:37.977Z,49.91
2019-03-06T17:15:09.432Z,49.91
2019-03-06T17:17:40.139Z,49.95
2019-03-06T17:20:14.629Z,49.25
2019-03-06T17:22:52.915Z,49.46
2019-03-06T17:25:28.378Z,49.82
2019-03-06T17:28:00.651Z,49.98
2019-03-06T17:30:32.282Z,50.04
2019-03-06T17:33:03.921Z,50.39
2019-03-06T17:35:36.259Z,50.32
2019-03-06T17:38:13.374Z,50.91
2019-03-06T17:40:44.207Z,51.30
2019-03-06T17:43:14.498Z,51.43
2019-03-06T17:45:47.907Z,50.99
2019-03-06T17:48:22.403Z,51.60
2019-03-06T17:50:54.382Z,51.45
2019-03-06T17:53:24.772Z,51.92
2019-03-06T17:55:55.238Z,51.79
2019-03-06T17:58:30.248Z,52.30
2019-03-06T18:01:02.783Z,52.44
2019-03-06T18:03:34.864Z,52.28
2019-03-06T18:06:05.252Z,52.02
2019-03-06T18:08:36.667Z,52.11
2019-03-06T18:11:10.641Z,52.24
2019-03-06T18:13:41.075Z,52.54
2019-03-06T18:16:11.604Z,52.35
2019-03-06T18:18:42.450Z,52.52
2019-03-06T18:21:13.303Z,52.91
2019-03-06T18:23:43.683Z,53.18
2019-03-06T18:26:14.007Z,53.08
2019-03-06T18:28:46.010Z,53.06
2019-03-06T18:31:16.357Z,53.25
2019-03-06T18:33:46.771Z,52.92
2019-03-06T18:36:19.353Z,52.65
2019-03-06T18:38:54.916Z,52.68
2019-03-06T18:41:25.795Z,52.46
2019-03-06T18:43:56.267Z,52.76
2019-03-06T18:46:26.705Z,53.07
2019-03-06T18:48:57.232Z,53.02
2019-03-06T18:51:28.089Z,53.07
2019-03-06T18:54:01.573Z,52.80
2019-03-06T18:56:35.064Z,52.54
2019-03-06T18:59:18.495Z,53.01
2019-03-06T19:01:50.255Z,53.35
2019-03-06T19:04:26.561Z,54.05
2019-03-06T19:06:59.042Z,54.58
2019-03-06T19:09:30.063Z,55.14
2019-03-06T19:12:00.972Z,55.95
2019-03-06T19:14:33.149Z,56.54
2019-03-06T19:17:03.452Z,56.74
2019-03-06T19:19:37.081Z,57.22
2019-03-06T19:22:07.950Z,57.50
2019-03-06T19:24:39.504Z,57.68
2019-03-06T19:27:14.528Z,58.06
2019-03-06T19:29:48.273Z,58.16
2019-03-06T19:32:19.029Z,58.46
2019-03-06T19:34:51.001Z,58.69
2019-03-06T19:37:24.492Z,58.84
2019-03-06T19:39:54.848Z,59.15
2019-03-06T19:42:25.229Z,59.89
2019-03-06T19:45:00.316Z,60.49
2019-03-06T19:47:30.934Z,60.88
2019-03-06T19:50:01.258Z,61.33
2019-03-06T19:52:34.171Z,61.86
2019-03-06T19:55:14.724Z,62.31
2019-03-06T19:57:49.092Z,62.78
2019-03-06T20:00:34.278Z,63.12
2019-03-06T20:03:06.476Z,63.36
2019-03-06T20:05:41.447Z,63.67
2019-03-06T20:08:15.313Z,63.91
2019-03-06T20:10:46.139Z,64.06
2019-03-06T20:13:22.050Z,63.98
2019-03-06T20:15:55.537Z,64.04
2019-03-06T20:18:26.360Z,64.28
2019-03-06T20:20:57.120Z,64.59
2019-03-06T20:23:28.143Z,64.75
2019-03-06T20:25:58.469Z,65.08
2019-03-06T20:28:28.734Z,65.55
2019-03-06T20:31:08.930Z,65.76
2019-03-06T20:33:57.137Z,66.28
2019-03-06T20:36:27.439Z,66.72
2019-03-06T20:38:58.099Z,67.27
2019-03-06T20:41:28.986Z,67.82
2019-03-06T20:43:59.713Z,68.26
2019-03-06T20:46:30.085Z,68.24
2019-03-06T20:49:01.915Z,68.66
2019-03-06T20:51:32.626Z,69.18
2019-03-06T20:54:15.208Z,69.46
2019-03-06T20:56:50.142Z,69.58
2019-03-06T20:59:20.684Z,69.92
2019-03-06T21:01:56.416Z,69.71
2019-03-06T21:04:27.188Z,70.05
2019-03-06T21:06:57.707Z,69.81
2019-03-06T21:09:33.271Z,70.33
2019-03-06T21:12:04.468Z,70.58
2019-03-06T21:14:34.798Z,71.11
2019-03-06T21:17:05.831Z,71.54
2019-03-06T21:19:39.470Z,71.32
2019-03-06T21:22:12.076Z,71.32
2019-03-06T21:24:43.737Z,71.59
2019-03-06T21:27:16.340Z,72.22
2019-03-06T21:29:46.758Z,72.17
2019-03-06T21:32:17.529Z,72.46
2019-03-06T21:34:48.379Z,72.17
2019-03-06T21:37:18.962Z,72.59
2019-03-06T21:39:49.460Z,72.84
2019-03-06T21:42:23.821Z,72.46
2019-03-06T21:44:54.624Z,72.32
2019-03-06T21:47:29.892Z,71.97
2019-03-06T21:50:10.638Z,70.51
2019-03-06T21:52:41.242Z,70.98
2019-03-06T21:55:24.077Z,70.20
2019-03-06T21:57:57.528Z,69.93
2019-03-06T22:00:34.995Z,69.13
2019-03-06T22:03:15.013Z,68.44
2019-03-06T22:05:54.069Z,67.74
2019-03-06T22:08:31.707Z,67.21
2019-03-06T22:11:15.378Z,66.62
2019-03-06T22:13:52.528Z,66.38
2019-03-06T22:33:21.260Z,66.89
2019-03-06T22:35:51.470Z,67.62
2019-03-06T22:38:25.749Z,68.07
2019-03-06T22:40:57.720Z,67.82
2019-03-06T22:43:39.252Z,68.77
2019-03-06T22:46:21.167Z,68.25
2019-03-06T22:49:07.618Z,69.16
2019-03-06T22:51:38.514Z,69.42
2019-03-06T22:54:14.785Z,69.34
2019-03-06T22:56:49.586Z,69.55
2019-03-06T22:59:23.425Z,69.41
2019-03-06T23:01:57.598Z,69.74
2019-03-06T23:04:33.905Z,70.17
2019-03-06T23:07:05.494Z,70.31
2019-03-06T23:09:35.942Z,70.56
2019-03-06T23:12:08.203Z,70.48
2019-03-06T23:14:45.757Z,70.67
2019-03-06T23:17:22.301Z,70.75
2019-03-06T23:19:52.768Z,70.90
2019-03-06T23:22:23.362Z,70.59
2019-03-06T23:24:55.758Z,70.50
2019-03-06T23:27:26.462Z,71.05
2019-03-06T23:29:57.128Z,71.69
2019-03-06T23:32:30.134Z,71.73
2019-03-06T23:35:06.445Z,71.08
2019-03-06T23:37:38.137Z,71.02
2019-03-06T23:40:11.917Z,70.97
2019-03-06T23:42:48.223Z,70.34
2019-03-06T23:45:18.970Z,70.71
2019-03-06T23:47:52.840Z,70.35
2019-03-06T23:50:23.862Z,70.38
2019-03-06T23:53:10.772Z,70.69
2019-03-06T23:55:42.765Z,70.59
2019-03-06T23:58:17.504Z,70.40
